sensor_id;sensor_type;location;lat;lon;timestamp;temperature;humidity
51615;DHT22;37695;52.960;6.188;2023-07-29T00:00:44;19.10;99.90
51615;DHT22;37695;52.960;6.188;2023-07-29T00:03:10;19.10;99.90
51615;DHT22;37695;52.960;6.188;2023-07-29T00:05:37;19.10;99.90
51615;DHT22;37695;52.960;6.188;2023-07-29T00:08:03;19.10;99.90
51615;DHT22;37695;52.960;6.188;2023-07-29T00:10:30;19.10;99.90
51615;DHT22;37695;52.960;6.188;2023-07-29T00:12:56;19.00;99.90
51615;DHT22;37695;52.960;6.188;2023-07-29T00:15:21;19.00;99.90
51615;DHT22;37695;52.960;6.188;2023-07-29T00:17:47;19.00;99.90
51615;DHT22;37695;52.960;6.188;2023-07-29T00:20:12;19.00;99.90
51615;DHT22;37695;52.960;6.188;2023-07-29T00:22:38;18.90;99.90
51615;DHT22;37695;52.960;6.188;2023-07-29T00:25:04;18.90;99.90
51615;DHT22;37695;52.960;6.188;2023-07-29T00:27:29;18.90;99.90
51615;DHT22;37695;52.960;6.188;2023-07-29T00:29:55;18.80;99.90
51615;DHT22;37695;52.960;6.188;2023-07-29T00:32:20;18.80;99.90
51615;DHT22;37695;52.960;6.188;2023-07-29T00:34:46;18.80;99.90
51615;DHT22;37695;52.960;6.188;2023-07-29T00:37:11;18.70;99.90
51615;DHT22;37695;52.960;6.188;2023-07-29T00:39:37;18.70;99.90
51615;DHT22;37695;52.960;6.188;2023-07-29T00:42:04;18.70;99.90
51615;DHT22;37695;52.960;6.188;2023-07-29T00:44:30;18.70;99.90
51615;DHT22;37695;52.960;6.188;2023-07-29T00:46:57;18.70;99.90
51615;DHT22;37695;52.960;6.188;2023-07-29T00:49:24;18.60;99.90
51615;DHT22;37695;52.960;6.188;2023-07-29T00:51:50;18.60;99.90
51615;DHT22;37695;52.960;6.188;2023-07-29T00:54:15;18.60;99.90
51615;DHT22;37695;52.960;6.188;2023-07-29T00:56:41;18.60;99.90
51615;DHT22;37695;52.960;6.188;2023-07-29T00:59:08;18.50;99.90
51615;DHT22;37695;52.960;6.188;2023-07-29T01:01:33;18.50;99.90
51615;DHT22;37695;52.960;6.188;2023-07-29T01:03:59;18.50;99.90
51615;DHT22;37695;52.960;6.188;2023-07-29T01:12:13;18.40;99.90
51615;DHT22;37695;52.960;6.188;2023-07-29T01:14:59;18.30;99.90
51615;DHT22;37695;52.960;6.188;2023-07-29T01:17:55;18.30;99.90
51615;DHT22;37695;52.960;6.188;2023-07-29T01:20:21;18.30;99.90
51615;DHT22;37695;52.960;6.188;2023-07-29T01:22:49;18.20;99.90
51615;DHT22;37695;52.960;6.188;2023-07-29T01:25:14;18.20;99.90
51615;DHT22;37695;52.960;6.188;2023-07-29T01:27:42;18.20;99.90
51615;DHT22;37695;52.960;6.188;2023-07-29T01:30:08;18.20;99.90
51615;DHT22;37695;52.960;6.188;2023-07-29T01:32:42;18.10;99.90
51615;DHT22;37695;52.960;6.188;2023-07-29T01:35:18;18.10;99.90
51615;DHT22;37695;52.960;6.188;2023-07-29T01:37:48;18.10;99.90
51615;DHT22;37695;52.960;6.188;2023-07-29T01:40:15;18.10;99.90
51615;DHT22;37695;52.960;6.188;2023-07-29T01:42:41;18.10;99.90
51615;DHT22;37695;52.960;6.188;2023-07-29T01:45:07;18.10;99.90
51615;DHT22;37695;52.960;6.188;2023-07-29T01:47:32;18.10;99.90
51615;DHT22;37695;52.960;6.188;2023-07-29T01:49:58;18.10;99.90
51615;DHT22;37695;52.960;6.188;2023-07-29T01:52:23;18.10;99.90
51615;DHT22;37695;52.960;6.188;2023-07-29T01:54:49;18.10;99.90
51615;DHT22;37695;52.960;6.188;2023-07-29T01:57:14;18.10;99.90
51615;DHT22;37695;52.960;6.188;2023-07-29T01:59:40;18.10;99.90
51615;DHT22;37695;52.960;6.188;2023-07-29T02:02:06;18.10;99.90
51615;DHT22;37695;52.960;6.188;2023-07-29T02:04:31;18.00;99.90
51615;DHT22;37695;52.960;6.188;2023-07-29T02:06:57;18.00;99.90
51615;DHT22;37695;52.960;6.188;2023-07-29T02:09:22;18.00;99.90
51615;DHT22;37695;52.960;6.188;2023-07-29T02:11:48;18.00;99.90
51615;DHT22;37695;52.960;6.188;2023-07-29T02:14:13;18.00;99.90
51615;DHT22;37695;52.960;6.188;2023-07-29T02:16:39;17.90;99.90
51615;DHT22;37695;52.960;6.188;2023-07-29T02:19:04;17.90;99.90
51615;DHT22;37695;52.960;6.188;2023-07-29T02:21:30;17.90;99.90
51615;DHT22;37695;52.960;6.188;2023-07-29T02:23:55;17.90;99.90
51615;DHT22;37695;52.960;6.188;2023-07-29T02:26:22;17.90;99.90
51615;DHT22;37695;52.960;6.188;2023-07-29T02:28:47;17.90;99.90
51615;DHT22;37695;52.960;6.188;2023-07-29T02:31:24;17.90;99.90
51615;DHT22;37695;52.960;6.188;2023-07-29T02:33:51;17.80;99.90
51615;DHT22;37695;52.960;6.188;2023-07-29T02:36:17;17.80;99.90
51615;DHT22;37695;52.960;6.188;2023-07-29T02:38:42;17.80;99.90
51615;DHT22;37695;52.960;6.188;2023-07-29T02:41:09;17.80;99.90
51615;DHT22;37695;52.960;6.188;2023-07-29T02:43:36;17.80;99.90
51615;DHT22;37695;52.960;6.188;2023-07-29T02:46:02;17.70;99.90
51615;DHT22;37695;52.960;6.188;2023-07-29T02:48:28;17.60;99.90
51615;DHT22;37695;52.960;6.188;2023-07-29T02:50:54;17.60;99.90
51615;DHT22;37695;52.960;6.188;2023-07-29T02:53:19;17.60;99.90
51615;DHT22;37695;52.960;6.188;2023-07-29T02:55:45;17.60;99.90
51615;DHT22;37695;52.960;6.188;2023-07-29T02:58:11;17.60;99.90
51615;DHT22;37695;52.960;6.188;2023-07-29T03:00:36;17.50;99.90
51615;DHT22;37695;52.960;6.188;2023-07-29T03:03:02;17.50;99.90
51615;DHT22;37695;52.960;6.188;2023-07-29T03:05:28;17.50;99.90
51615;DHT22;37695;52.960;6.188;2023-07-29T03:07:53;17.50;99.90
51615;DHT22;37695;52.960;6.188;2023-07-29T03:10:19;17.40;99.90
51615;DHT22;37695;52.960;6.188;2023-07-29T03:12:45;17.40;99.90
51615;DHT22;37695;52.960;6.188;2023-07-29T03:15:12;17.40;99.90
51615;DHT22;37695;52.960;6.188;2023-07-29T03:17:37;17.40;99.90
51615;DHT22;37695;52.960;6.188;2023-07-29T03:20:03;17.30;99.90
51615;DHT22;37695;52.960;6.188;2023-07-29T03:22:29;17.40;99.90
51615;DHT22;37695;52.960;6.188;2023-07-29T03:24:54;17.30;99.90
51615;DHT22;37695;52.960;6.188;2023-07-29T03:27:20;17.30;99.90
51615;DHT22;37695;52.960;6.188;2023-07-29T03:29:46;17.30;99.90
51615;DHT22;37695;52.960;6.188;2023-07-29T03:32:11;17.30;99.90
51615;DHT22;37695;52.960;6.188;2023-07-29T03:34:37;17.30;99.90
51615;DHT22;37695;52.960;6.188;2023-07-29T03:37:04;17.30;99.90
51615;DHT22;37695;52.960;6.188;2023-07-29T03:39:29;17.30;99.90
51615;DHT22;37695;52.960;6.188;2023-07-29T03:41:55;17.30;99.90
51615;DHT22;37695;52.960;6.188;2023-07-29T03:44:20;17.30;99.90
51615;DHT22;37695;52.960;6.188;2023-07-29T03:46:46;17.30;99.90
51615;DHT22;37695;52.960;6.188;2023-07-29T03:49:11;17.30;99.90
51615;DHT22;37695;52.960;6.188;2023-07-29T03:51:37;17.30;99.90
51615;DHT22;37695;52.960;6.188;2023-07-29T03:54:02;17.30;99.90
51615;DHT22;37695;52.960;6.188;2023-07-29T03:56:28;17.30;99.90
51615;DHT22;37695;52.960;6.188;2023-07-29T03:58:53;17.40;99.90
51615;DHT22;37695;52.960;6.188;2023-07-29T04:01:27;17.30;99.90
51615;DHT22;37695;52.960;6.188;2023-07-29T04:03:52;17.40;99.90
51615;DHT22;37695;52.960;6.188;2023-07-29T04:06:18;17.40;99.90
51615;DHT22;37695;52.960;6.188;2023-07-29T04:08:43;17.40;99.90
51615;DHT22;37695;52.960;6.188;2023-07-29T04:11:09;17.40;99.90
51615;DHT22;37695;52.960;6.188;2023-07-29T04:13:34;17.40;99.90
51615;DHT22;37695;52.960;6.188;2023-07-29T04:16:00;17.30;99.90
51615;DHT22;37695;52.960;6.188;2023-07-29T04:18:25;17.40;99.90
51615;DHT22;37695;52.960;6.188;2023-07-29T04:20:51;17.30;99.90
51615;DHT22;37695;52.960;6.188;2023-07-29T04:23:17;17.30;99.90
51615;DHT22;37695;52.960;6.188;2023-07-29T04:25:42;17.40;99.90
51615;DHT22;37695;52.960;6.188;2023-07-29T04:28:08;17.30;99.90
51615;DHT22;37695;52.960;6.188;2023-07-29T04:30:33;17.30;99.90
51615;DHT22;37695;52.960;6.188;2023-07-29T04:32:59;17.30;99.90
51615;DHT22;37695;52.960;6.188;2023-07-29T04:35:25;17.40;99.90
51615;DHT22;37695;52.960;6.188;2023-07-29T04:37:51;17.30;99.90
51615;DHT22;37695;52.960;6.188;2023-07-29T04:40:16;17.30;99.90
51615;DHT22;37695;52.960;6.188;2023-07-29T04:42:42;17.30;99.90
51615;DHT22;37695;52.960;6.188;2023-07-29T04:45:07;17.30;99.90
51615;DHT22;37695;52.960;6.188;2023-07-29T04:47:33;17.30;99.90
51615;DHT22;37695;52.960;6.188;2023-07-29T04:49:58;17.40;99.90
51615;DHT22;37695;52.960;6.188;2023-07-29T04:52:24;17.40;99.90
51615;DHT22;37695;52.960;6.188;2023-07-29T04:54:50;17.40;99.90
51615;DHT22;37695;52.960;6.188;2023-07-29T04:57:16;17.40;99.90
51615;DHT22;37695;52.960;6.188;2023-07-29T04:59:41;17.40;99.90
51615;DHT22;37695;52.960;6.188;2023-07-29T05:02:07;17.40;99.90
51615;DHT22;37695;52.960;6.188;2023-07-29T05:04:32;17.40;99.90
51615;DHT22;37695;52.960;6.188;2023-07-29T05:06:58;17.50;99.90
51615;DHT22;37695;52.960;6.188;2023-07-29T05:09:23;17.50;99.90
51615;DHT22;37695;52.960;6.188;2023-07-29T05:11:49;17.50;99.90
51615;DHT22;37695;52.960;6.188;2023-07-29T05:14:16;17.50;99.90
51615;DHT22;37695;52.960;6.188;2023-07-29T05:16:42;17.60;99.90
51615;DHT22;37695;52.960;6.188;2023-07-29T05:19:07;17.60;99.90
51615;DHT22;37695;52.960;6.188;2023-07-29T05:21:33;17.60;99.90
51615;DHT22;37695;52.960;6.188;2023-07-29T05:23:59;17.60;99.90
51615;DHT22;37695;52.960;6.188;2023-07-29T05:26:25;17.60;99.90
51615;DHT22;37695;52.960;6.188;2023-07-29T05:28:50;17.60;99.90
51615;DHT22;37695;52.960;6.188;2023-07-29T05:31:16;17.70;99.90
51615;DHT22;37695;52.960;6.188;2023-07-29T05:33:41;17.70;99.90
51615;DHT22;37695;52.960;6.188;2023-07-29T05:36:07;17.70;99.90
51615;DHT22;37695;52.960;6.188;2023-07-29T05:38:33;17.70;99.90
51615;DHT22;37695;52.960;6.188;2023-07-29T05:40:58;17.70;99.90
51615;DHT22;37695;52.960;6.188;2023-07-29T05:43:24;17.60;99.90
51615;DHT22;37695;52.960;6.188;2023-07-29T05:45:50;17.60;99.90
51615;DHT22;37695;52.960;6.188;2023-07-29T05:48:16;17.70;99.90
51615;DHT22;37695;52.960;6.188;2023-07-29T05:50:41;17.60;99.90
51615;DHT22;37695;52.960;6.188;2023-07-29T05:53:07;17.70;99.90
51615;DHT22;37695;52.960;6.188;2023-07-29T05:55:33;17.70;99.90
51615;DHT22;37695;52.960;6.188;2023-07-29T05:57:58;17.70;99.90
51615;DHT22;37695;52.960;6.188;2023-07-29T06:00:24;17.70;99.90
51615;DHT22;37695;52.960;6.188;2023-07-29T06:02:49;17.80;99.90
51615;DHT22;37695;52.960;6.188;2023-07-29T06:05:15;17.80;99.90
51615;DHT22;37695;52.960;6.188;2023-07-29T06:07:40;17.80;99.90
51615;DHT22;37695;52.960;6.188;2023-07-29T06:10:09;17.80;99.90
51615;DHT22;37695;52.960;6.188;2023-07-29T06:12:37;17.90;99.90
51615;DHT22;37695;52.960;6.188;2023-07-29T06:15:03;18.00;99.90
51615;DHT22;37695;52.960;6.188;2023-07-29T06:17:29;18.10;99.90
51615;DHT22;37695;52.960;6.188;2023-07-29T06:19:55;18.20;99.90
51615;DHT22;37695;52.960;6.188;2023-07-29T06:22:20;18.20;99.90
51615;DHT22;37695;52.960;6.188;2023-07-29T06:24:46;18.30;99.90
51615;DHT22;37695;52.960;6.188;2023-07-29T06:27:11;18.70;99.90
51615;DHT22;37695;52.960;6.188;2023-07-29T06:29:37;18.30;99.90
51615;DHT22;37695;52.960;6.188;2023-07-29T06:32:02;18.30;99.90
51615;DHT22;37695;52.960;6.188;2023-07-29T06:34:28;18.40;99.90
51615;DHT22;37695;52.960;6.188;2023-07-29T06:36:54;18.50;99.90
51615;DHT22;37695;52.960;6.188;2023-07-29T06:39:19;18.50;99.90
51615;DHT22;37695;52.960;6.188;2023-07-29T06:41:45;18.60;99.90
51615;DHT22;37695;52.960;6.188;2023-07-29T06:44:10;18.80;99.90
51615;DHT22;37695;52.960;6.188;2023-07-29T06:46:36;18.80;99.90
51615;DHT22;37695;52.960;6.188;2023-07-29T06:49:01;18.90;99.90
51615;DHT22;37695;52.960;6.188;2023-07-29T06:51:27;19.00;99.90
51615;DHT22;37695;52.960;6.188;2023-07-29T06:53:57;19.10;99.90
51615;DHT22;37695;52.960;6.188;2023-07-29T06:56:23;19.20;99.90
51615;DHT22;37695;52.960;6.188;2023-07-29T06:58:48;19.20;99.90
51615;DHT22;37695;52.960;6.188;2023-07-29T07:01:14;19.10;99.90
51615;DHT22;37695;52.960;6.188;2023-07-29T07:03:39;19.10;99.90
51615;DHT22;37695;52.960;6.188;2023-07-29T07:06:05;19.20;99.90
51615;DHT22;37695;52.960;6.188;2023-07-29T07:08:31;19.20;99.90
51615;DHT22;37695;52.960;6.188;2023-07-29T07:10:56;19.20;99.90
51615;DHT22;37695;52.960;6.188;2023-07-29T07:13:22;19.20;99.90
51615;DHT22;37695;52.960;6.188;2023-07-29T07:15:47;19.20;99.90
51615;DHT22;37695;52.960;6.188;2023-07-29T07:18:13;19.20;99.90
51615;DHT22;37695;52.960;6.188;2023-07-29T07:20:39;19.20;99.90
51615;DHT22;37695;52.960;6.188;2023-07-29T07:23:04;19.20;99.90
51615;DHT22;37695;52.960;6.188;2023-07-29T07:25:36;19.20;99.90
51615;DHT22;37695;52.960;6.188;2023-07-29T07:28:02;19.20;99.90
51615;DHT22;37695;52.960;6.188;2023-07-29T07:30:27;19.30;99.90
51615;DHT22;37695;52.960;6.188;2023-07-29T07:32:53;19.40;99.90
51615;DHT22;37695;52.960;6.188;2023-07-29T07:35:18;19.60;99.90
51615;DHT22;37695;52.960;6.188;2023-07-29T07:37:44;19.70;99.90
51615;DHT22;37695;52.960;6.188;2023-07-29T07:40:10;19.70;99.90
51615;DHT22;37695;52.960;6.188;2023-07-29T07:42:36;19.80;99.90
51615;DHT22;37695;52.960;6.188;2023-07-29T07:45:02;19.80;99.90
51615;DHT22;37695;52.960;6.188;2023-07-29T07:47:27;19.80;99.90
51615;DHT22;37695;52.960;6.188;2023-07-29T07:49:53;19.80;99.90
51615;DHT22;37695;52.960;6.188;2023-07-29T07:52:18;19.70;99.90
51615;DHT22;37695;52.960;6.188;2023-07-29T07:54:44;19.70;99.90
51615;DHT22;37695;52.960;6.188;2023-07-29T07:57:09;19.60;99.90
51615;DHT22;37695;52.960;6.188;2023-07-29T07:59:35;19.70;99.90
51615;DHT22;37695;52.960;6.188;2023-07-29T08:02:00;19.70;99.90
51615;DHT22;37695;52.960;6.188;2023-07-29T08:04:26;19.90;99.90
51615;DHT22;37695;52.960;6.188;2023-07-29T08:06:52;20.10;99.90
51615;DHT22;37695;52.960;6.188;2023-07-29T08:09:17;20.30;99.90
51615;DHT22;37695;52.960;6.188;2023-07-29T08:11:43;20.30;99.90
51615;DHT22;37695;52.960;6.188;2023-07-29T08:14:08;20.30;99.90
51615;DHT22;37695;52.960;6.188;2023-07-29T08:16:34;20.40;99.90
51615;DHT22;37695;52.960;6.188;2023-07-29T08:18:59;20.60;99.90
51615;DHT22;37695;52.960;6.188;2023-07-29T08:21:26;20.50;99.90
51615;DHT22;37695;52.960;6.188;2023-07-29T08:23:52;20.50;99.90
51615;DHT22;37695;52.960;6.188;2023-07-29T08:26:17;20.40;99.90
51615;DHT22;37695;52.960;6.188;2023-07-29T08:28:43;20.20;99.90
51615;DHT22;37695;52.960;6.188;2023-07-29T08:31:09;20.10;99.90
51615;DHT22;37695;52.960;6.188;2023-07-29T08:33:34;20.10;99.90
51615;DHT22;37695;52.960;6.188;2023-07-29T08:36:00;20.20;99.90
51615;DHT22;37695;52.960;6.188;2023-07-29T08:38:26;20.20;99.90
51615;DHT22;37695;52.960;6.188;2023-07-29T08:43:38;20.40;99.90
51615;DHT22;37695;52.960;6.188;2023-07-29T08:46:04;20.40;99.90
51615;DHT22;37695;52.960;6.188;2023-07-29T08:48:39;20.50;99.90
51615;DHT22;37695;52.960;6.188;2023-07-29T08:51:05;20.70;99.90
51615;DHT22;37695;52.960;6.188;2023-07-29T08:53:33;20.70;99.90
51615;DHT22;37695;52.960;6.188;2023-07-29T08:55:59;20.90;99.90
51615;DHT22;37695;52.960;6.188;2023-07-29T08:58:25;21.00;99.90
51615;DHT22;37695;52.960;6.188;2023-07-29T09:00:51;21.00;99.90
51615;DHT22;37695;52.960;6.188;2023-07-29T09:03:16;21.00;99.90
51615;DHT22;37695;52.960;6.188;2023-07-29T09:05:42;21.00;99.90
51615;DHT22;37695;52.960;6.188;2023-07-29T09:08:08;21.00;99.90
51615;DHT22;37695;52.960;6.188;2023-07-29T09:10:37;20.90;99.90
51615;DHT22;37695;52.960;6.188;2023-07-29T09:13:03;20.80;99.90
51615;DHT22;37695;52.960;6.188;2023-07-29T09:15:30;20.70;99.90
51615;DHT22;37695;52.960;6.188;2023-07-29T09:17:57;21.00;99.90
51615;DHT22;37695;52.960;6.188;2023-07-29T09:20:26;21.30;99.90
51615;DHT22;37695;52.960;6.188;2023-07-29T09:22:54;21.40;99.90
51615;DHT22;37695;52.960;6.188;2023-07-29T09:25:28;21.50;99.90
51615;DHT22;37695;52.960;6.188;2023-07-29T09:27:59;21.60;99.90
51615;DHT22;37695;52.960;6.188;2023-07-29T09:30:26;21.50;99.90
51615;DHT22;37695;52.960;6.188;2023-07-29T09:32:55;21.50;99.90
51615;DHT22;37695;52.960;6.188;2023-07-29T09:35:21;21.40;99.90
51615;DHT22;37695;52.960;6.188;2023-07-29T09:37:47;21.40;99.90
51615;DHT22;37695;52.960;6.188;2023-07-29T09:40:16;21.40;99.90
51615;DHT22;37695;52.960;6.188;2023-07-29T09:42:53;21.60;99.90
51615;DHT22;37695;52.960;6.188;2023-07-29T09:45:26;21.80;99.90
51615;DHT22;37695;52.960;6.188;2023-07-29T09:47:54;21.90;99.90
51615;DHT22;37695;52.960;6.188;2023-07-29T09:50:26;22.10;99.90
51615;DHT22;37695;52.960;6.188;2023-07-29T09:52:53;22.30;99.90
51615;DHT22;37695;52.960;6.188;2023-07-29T09:55:23;22.30;99.90
51615;DHT22;37695;52.960;6.188;2023-07-29T09:57:59;22.20;99.90
51615;DHT22;37695;52.960;6.188;2023-07-29T10:00:28;22.00;99.90
51615;DHT22;37695;52.960;6.188;2023-07-29T10:02:54;21.70;99.90
51615;DHT22;37695;52.960;6.188;2023-07-29T10:05:22;21.60;99.90
51615;DHT22;37695;52.960;6.188;2023-07-29T10:07:48;21.50;99.90
51615;DHT22;37695;52.960;6.188;2023-07-29T10:10:14;21.40;99.90
51615;DHT22;37695;52.960;6.188;2023-07-29T10:12:41;21.40;99.90
51615;DHT22;37695;52.960;6.188;2023-07-29T10:15:08;21.40;99.90
51615;DHT22;37695;52.960;6.188;2023-07-29T10:17:36;21.60;99.90
51615;DHT22;37695;52.960;6.188;2023-07-29T10:20:07;21.70;99.90
51615;DHT22;37695;52.960;6.188;2023-07-29T10:22:36;21.60;99.90
51615;DHT22;37695;52.960;6.188;2023-07-29T10:25:26;21.50;99.90
51615;DHT22;37695;52.960;6.188;2023-07-29T10:28:00;21.30;99.90
51615;DHT22;37695;52.960;6.188;2023-07-29T10:30:28;21.00;99.90
51615;DHT22;37695;52.960;6.188;2023-07-29T10:33:01;20.90;99.90
51615;DHT22;37695;52.960;6.188;2023-07-29T10:35:28;20.90;99.90
51615;DHT22;37695;52.960;6.188;2023-07-29T10:37:53;20.90;99.90
51615;DHT22;37695;52.960;6.188;2023-07-29T10:40:20;20.90;99.90
51615;DHT22;37695;52.960;6.188;2023-07-29T10:43:02;21.20;99.90
51615;DHT22;37695;52.960;6.188;2023-07-29T10:45:40;21.30;99.90
51615;DHT22;37695;52.960;6.188;2023-07-29T10:51:34;21.10;99.90
51615;DHT22;37695;52.960;6.188;2023-07-29T10:54:10;21.30;99.90
51615;DHT22;37695;52.960;6.188;2023-07-29T10:56:39;21.50;99.90
51615;DHT22;37695;52.960;6.188;2023-07-29T11:01:39;21.50;99.90
51615;DHT22;37695;52.960;6.188;2023-07-29T11:17:45;21.70;99.90
51615;DHT22;37695;52.960;6.188;2023-07-29T11:20:12;21.70;99.90
51615;DHT22;37695;52.960;6.188;2023-07-29T11:22:38;21.60;99.90
51615;DHT22;37695;52.960;6.188;2023-07-29T11:25:04;21.60;99.90
51615;DHT22;37695;52.960;6.188;2023-07-29T11:27:31;21.40;99.90
51615;DHT22;37695;52.960;6.188;2023-07-29T11:30:00;21.40;99.90
51615;DHT22;37695;52.960;6.188;2023-07-29T11:32:27;21.30;99.90
51615;DHT22;37695;52.960;6.188;2023-07-29T11:34:53;21.20;99.90
51615;DHT22;37695;52.960;6.188;2023-07-29T11:37:19;21.20;99.90
51615;DHT22;37695;52.960;6.188;2023-07-29T11:39:46;21.20;99.90
51615;DHT22;37695;52.960;6.188;2023-07-29T11:42:13;21.10;99.90
51615;DHT22;37695;52.960;6.188;2023-07-29T11:44:39;21.00;99.90
51615;DHT22;37695;52.960;6.188;2023-07-29T11:47:11;21.00;99.90
51615;DHT22;37695;52.960;6.188;2023-07-29T11:49:40;21.30;99.90
51615;DHT22;37695;52.960;6.188;2023-07-29T11:52:07;21.60;99.90
51615;DHT22;37695;52.960;6.188;2023-07-29T11:54:35;22.10;99.90
51615;DHT22;37695;52.960;6.188;2023-07-29T11:57:01;22.30;99.90
51615;DHT22;37695;52.960;6.188;2023-07-29T11:59:27;22.10;99.90
51615;DHT22;37695;52.960;6.188;2023-07-29T12:01:53;22.10;99.90
51615;DHT22;37695;52.960;6.188;2023-07-29T12:04:19;22.10;99.90
51615;DHT22;37695;52.960;6.188;2023-07-29T12:06:45;22.00;99.90
51615;DHT22;37695;52.960;6.188;2023-07-29T12:09:10;21.80;99.90
51615;DHT22;37695;52.960;6.188;2023-07-29T12:11:38;22.20;99.90
51615;DHT22;37695;52.960;6.188;2023-07-29T12:14:07;22.40;99.90
51615;DHT22;37695;52.960;6.188;2023-07-29T12:16:43;22.70;99.90
51615;DHT22;37695;52.960;6.188;2023-07-29T12:19:09;22.60;99.90
51615;DHT22;37695;52.960;6.188;2023-07-29T12:21:37;22.60;99.90
51615;DHT22;37695;52.960;6.188;2023-07-29T12:24:03;22.50;99.90
51615;DHT22;37695;52.960;6.188;2023-07-29T12:26:29;22.40;99.90
51615;DHT22;37695;52.960;6.188;2023-07-29T12:28:55;22.20;99.90
51615;DHT22;37695;52.960;6.188;2023-07-29T12:31:22;22.20;99.90
51615;DHT22;37695;52.960;6.188;2023-07-29T12:33:56;22.10;99.90
51615;DHT22;37695;52.960;6.188;2023-07-29T12:36:22;22.10;99.90
51615;DHT22;37695;52.960;6.188;2023-07-29T12:38:52;22.10;99.90
51615;DHT22;37695;52.960;6.188;2023-07-29T12:41:17;21.90;99.90
51615;DHT22;37695;52.960;6.188;2023-07-29T12:43:43;21.90;99.90
51615;DHT22;37695;52.960;6.188;2023-07-29T12:46:08;21.90;99.90
51615;DHT22;37695;52.960;6.188;2023-07-29T12:48:34;22.00;99.90
51615;DHT22;37695;52.960;6.188;2023-07-29T12:51:00;21.90;99.90
51615;DHT22;37695;52.960;6.188;2023-07-29T12:53:25;21.90;99.90
51615;DHT22;37695;52.960;6.188;2023-07-29T12:55:51;22.40;99.90
51615;DHT22;37695;52.960;6.188;2023-07-29T12:58:16;22.60;99.90
51615;DHT22;37695;52.960;6.188;2023-07-29T13:00:42;22.70;99.90
51615;DHT22;37695;52.960;6.188;2023-07-29T13:03:07;22.80;99.90
51615;DHT22;37695;52.960;6.188;2023-07-29T13:05:33;22.80;99.90
51615;DHT22;37695;52.960;6.188;2023-07-29T13:07:58;23.00;99.90
51615;DHT22;37695;52.960;6.188;2023-07-29T13:10:24;23.00;99.90
51615;DHT22;37695;52.960;6.188;2023-07-29T13:12:49;23.20;99.90
51615;DHT22;37695;52.960;6.188;2023-07-29T13:15:15;23.10;99.90
51615;DHT22;37695;52.960;6.188;2023-07-29T13:17:40;23.00;99.90
51615;DHT22;37695;52.960;6.188;2023-07-29T13:20:07;22.90;99.90
51615;DHT22;37695;52.960;6.188;2023-07-29T13:22:33;22.70;99.90
51615;DHT22;37695;52.960;6.188;2023-07-29T13:24:59;22.60;99.90
51615;DHT22;37695;52.960;6.188;2023-07-29T13:27:24;22.60;99.90
51615;DHT22;37695;52.960;6.188;2023-07-29T13:29:50;22.50;99.90
51615;DHT22;37695;52.960;6.188;2023-07-29T13:32:16;22.60;99.90
51615;DHT22;37695;52.960;6.188;2023-07-29T13:34:41;22.60;99.90
51615;DHT22;37695;52.960;6.188;2023-07-29T13:37:07;22.50;99.90
51615;DHT22;37695;52.960;6.188;2023-07-29T13:39:32;22.50;99.90
51615;DHT22;37695;52.960;6.188;2023-07-29T13:41:58;22.60;99.90
51615;DHT22;37695;52.960;6.188;2023-07-29T13:44:23;22.50;99.90
51615;DHT22;37695;52.960;6.188;2023-07-29T13:46:49;22.30;99.90
51615;DHT22;37695;52.960;6.188;2023-07-29T13:49:14;22.30;99.90
51615;DHT22;37695;52.960;6.188;2023-07-29T13:51:40;22.40;99.90
51615;DHT22;37695;52.960;6.188;2023-07-29T13:54:08;22.20;99.90
51615;DHT22;37695;52.960;6.188;2023-07-29T13:56:33;22.20;99.90
51615;DHT22;37695;52.960;6.188;2023-07-29T13:58:59;22.30;99.90
51615;DHT22;37695;52.960;6.188;2023-07-29T14:01:24;22.50;99.90
51615;DHT22;37695;52.960;6.188;2023-07-29T14:03:50;22.50;99.90
51615;DHT22;37695;52.960;6.188;2023-07-29T14:06:15;22.50;99.90
51615;DHT22;37695;52.960;6.188;2023-07-29T14:08:41;22.60;99.90
51615;DHT22;37695;52.960;6.188;2023-07-29T14:11:07;22.50;99.90
51615;DHT22;37695;52.960;6.188;2023-07-29T14:13:32;22.40;99.90
51615;DHT22;37695;52.960;6.188;2023-07-29T14:16:01;22.20;99.90
51615;DHT22;37695;52.960;6.188;2023-07-29T14:18:28;22.00;99.90
51615;DHT22;37695;52.960;6.188;2023-07-29T14:20:53;22.00;99.90
51615;DHT22;37695;52.960;6.188;2023-07-29T14:23:19;22.00;99.90
51615;DHT22;37695;52.960;6.188;2023-07-29T14:25:44;22.00;99.90
51615;DHT22;37695;52.960;6.188;2023-07-29T14:28:10;22.10;99.90
51615;DHT22;37695;52.960;6.188;2023-07-29T14:30:35;22.20;99.90
51615;DHT22;37695;52.960;6.188;2023-07-29T14:33:03;22.30;99.90
51615;DHT22;37695;52.960;6.188;2023-07-29T14:35:28;22.40;99.90
51615;DHT22;37695;52.960;6.188;2023-07-29T14:37:54;22.40;99.90
51615;DHT22;37695;52.960;6.188;2023-07-29T14:40:19;22.30;99.90
51615;DHT22;37695;52.960;6.188;2023-07-29T14:42:45;22.30;99.90
51615;DHT22;37695;52.960;6.188;2023-07-29T14:45:10;22.30;99.90
51615;DHT22;37695;52.960;6.188;2023-07-29T14:47:36;22.30;99.90
51615;DHT22;37695;52.960;6.188;2023-07-29T14:50:01;22.40;99.90
51615;DHT22;37695;52.960;6.188;2023-07-29T14:52:27;22.30;99.90
51615;DHT22;37695;52.960;6.188;2023-07-29T14:54:52;22.40;99.90
51615;DHT22;37695;52.960;6.188;2023-07-29T14:57:18;22.50;99.90
51615;DHT22;37695;52.960;6.188;2023-07-29T14:59:44;22.40;99.90
51615;DHT22;37695;52.960;6.188;2023-07-29T15:02:09;22.50;99.90
51615;DHT22;37695;52.960;6.188;2023-07-29T15:04:35;22.40;99.90
51615;DHT22;37695;52.960;6.188;2023-07-29T15:07:02;22.30;99.90
51615;DHT22;37695;52.960;6.188;2023-07-29T15:09:28;22.30;99.90
51615;DHT22;37695;52.960;6.188;2023-07-29T15:11:53;22.40;99.90
51615;DHT22;37695;52.960;6.188;2023-07-29T15:14:19;22.40;99.90
51615;DHT22;37695;52.960;6.188;2023-07-29T15:16:44;22.40;99.90
51615;DHT22;37695;52.960;6.188;2023-07-29T15:19:10;22.40;99.90
51615;DHT22;37695;52.960;6.188;2023-07-29T15:21:35;22.40;99.90
51615;DHT22;37695;52.960;6.188;2023-07-29T15:24:01;22.30;99.90
51615;DHT22;37695;52.960;6.188;2023-07-29T15:26:27;22.30;99.90
51615;DHT22;37695;52.960;6.188;2023-07-29T15:28:53;22.30;99.90
51615;DHT22;37695;52.960;6.188;2023-07-29T15:31:19;22.20;99.90
51615;DHT22;37695;52.960;6.188;2023-07-29T15:33:44;22.20;99.90
51615;DHT22;37695;52.960;6.188;2023-07-29T15:36:10;22.20;99.90
51615;DHT22;37695;52.960;6.188;2023-07-29T15:38:35;22.20;99.90
51615;DHT22;37695;52.960;6.188;2023-07-29T15:41:01;22.30;99.90
51615;DHT22;37695;52.960;6.188;2023-07-29T15:43:26;22.30;99.90
51615;DHT22;37695;52.960;6.188;2023-07-29T15:45:52;22.20;99.90
51615;DHT22;37695;52.960;6.188;2023-07-29T15:48:17;22.10;99.90
51615;DHT22;37695;52.960;6.188;2023-07-29T15:50:44;22.00;99.90
51615;DHT22;37695;52.960;6.188;2023-07-29T15:53:09;21.90;99.90